sensor_id;sensor_type;location;lat;lon;timestamp;P1;durP1;ratioP1;P2;durP2;ratioP2
18580;SDS011;9420;50.876;7.012;2024-01-11T00:00:46;49.20;;;23.33;;
18580;SDS011;9420;50.876;7.012;2024-01-11T00:03:12;43.10;;;23.53;;
18580;SDS011;9420;50.876;7.012;2024-01-11T00:05:39;39.60;;;21.23;;
18580;SDS011;9420;50.876;7.012;2024-01-11T00:08:07;42.00;;;21.57;;
18580;SDS011;9420;50.876;7.012;2024-01-11T00:10:33;38.27;;;18.87;;
18580;SDS011;9420;50.876;7.012;2024-01-11T00:13:00;41.83;;;22.23;;
18580;SDS011;9420;50.876;7.012;2024-01-11T00:15:28;44.63;;;21.30;;
18580;SDS011;9420;50.876;7.012;2024-01-11T00:17:55;46.87;;;22.83;;
18580;SDS011;9420;50.876;7.012;2024-01-11T00:20:21;46.57;;;21.90;;
18580;SDS011;9420;50.876;7.012;2024-01-11T00:22:48;40.93;;;20.20;;
18580;SDS011;9420;50.876;7.012;2024-01-11T00:25:15;46.03;;;22.13;;
18580;SDS011;9420;50.876;7.012;2024-01-11T00:27:41;51.23;;;21.67;;
18580;SDS011;9420;50.876;7.012;2024-01-11T00:30:08;40.17;;;20.67;;
18580;SDS011;9420;50.876;7.012;2024-01-11T00:32:36;47.23;;;23.27;;
18580;SDS011;9420;50.876;7.012;2024-01-11T00:35:03;47.03;;;22.63;;
18580;SDS011;9420;50.876;7.012;2024-01-11T00:37:30;40.80;;;22.17;;
18580;SDS011;9420;50.876;7.012;2024-01-11T00:39:57;41.53;;;21.40;;
18580;SDS011;9420;50.876;7.012;2024-01-11T00:42:23;46.87;;;22.87;;
18580;SDS011;9420;50.876;7.012;2024-01-11T00:44:50;48.73;;;24.03;;
18580;SDS011;9420;50.876;7.012;2024-01-11T00:47:17;38.83;;;21.20;;
18580;SDS011;9420;50.876;7.012;2024-01-11T00:49:45;42.20;;;22.37;;
18580;SDS011;9420;50.876;7.012;2024-01-11T00:52:11;36.17;;;20.13;;
18580;SDS011;9420;50.876;7.012;2024-01-11T00:54:39;40.67;;;21.80;;
18580;SDS011;9420;50.876;7.012;2024-01-11T00:57:05;44.93;;;19.93;;
18580;SDS011;9420;50.876;7.012;2024-01-11T00:59:32;48.53;;;22.80;;
18580;SDS011;9420;50.876;7.012;2024-01-11T01:01:59;40.43;;;20.93;;
18580;SDS011;9420;50.876;7.012;2024-01-11T01:04:25;40.67;;;21.87;;
18580;SDS011;9420;50.876;7.012;2024-01-11T01:06:53;44.47;;;20.93;;
18580;SDS011;9420;50.876;7.012;2024-01-11T01:09:20;40.87;;;20.13;;
18580;SDS011;9420;50.876;7.012;2024-01-11T01:11:46;43.77;;;22.00;;
18580;SDS011;9420;50.876;7.012;2024-01-11T01:14:13;42.37;;;23.40;;
18580;SDS011;9420;50.876;7.012;2024-01-11T01:16:40;43.60;;;21.00;;
18580;SDS011;9420;50.876;7.012;2024-01-11T01:19:06;41.43;;;22.20;;
18580;SDS011;9420;50.876;7.012;2024-01-11T01:21:33;41.40;;;20.73;;
18580;SDS011;9420;50.876;7.012;2024-01-11T01:24:01;38.87;;;20.97;;
18580;SDS011;9420;50.876;7.012;2024-01-11T01:26:27;56.27;;;24.00;;
18580;SDS011;9420;50.876;7.012;2024-01-11T01:28:54;44.20;;;22.43;;
18580;SDS011;9420;50.876;7.012;2024-01-11T01:31:21;39.93;;;21.70;;
18580;SDS011;9420;50.876;7.012;2024-01-11T01:33:47;52.30;;;22.93;;
18580;SDS011;9420;50.876;7.012;2024-01-11T01:36:14;47.07;;;21.17;;
18580;SDS011;9420;50.876;7.012;2024-01-11T01:38:41;42.33;;;21.87;;
18580;SDS011;9420;50.876;7.012;2024-01-11T01:41:09;43.47;;;22.20;;
18580;SDS011;9420;50.876;7.012;2024-01-11T01:43:35;42.27;;;21.73;;
18580;SDS011;9420;50.876;7.012;2024-01-11T01:46:02;43.40;;;22.67;;
18580;SDS011;9420;50.876;7.012;2024-01-11T01:48:31;42.10;;;21.47;;
18580;SDS011;9420;50.876;7.012;2024-01-11T01:50:58;41.20;;;19.93;;
18580;SDS011;9420;50.876;7.012;2024-01-11T01:53:24;45.87;;;21.20;;
18580;SDS011;9420;50.876;7.012;2024-01-11T01:55:54;44.30;;;22.70;;
18580;SDS011;9420;50.876;7.012;2024-01-11T01:58:23;43.47;;;23.00;;
18580;SDS011;9420;50.876;7.012;2024-01-11T02:00:49;45.37;;;22.20;;
18580;SDS011;9420;50.876;7.012;2024-01-11T02:03:17;44.13;;;23.93;;
18580;SDS011;9420;50.876;7.012;2024-01-11T02:05:44;47.63;;;23.13;;
18580;SDS011;9420;50.876;7.012;2024-01-11T02:08:12;41.40;;;20.73;;
18580;SDS011;9420;50.876;7.012;2024-01-11T02:10:42;41.83;;;20.50;;
18580;SDS011;9420;50.876;7.012;2024-01-11T02:13:09;45.20;;;21.43;;
18580;SDS011;9420;50.876;7.012;2024-01-11T02:15:38;45.10;;;23.17;;
18580;SDS011;9420;50.876;7.012;2024-01-11T02:18:05;41.70;;;21.17;;
18580;SDS011;9420;50.876;7.012;2024-01-11T02:20:32;43.93;;;22.33;;
18580;SDS011;9420;50.876;7.012;2024-01-11T02:23:01;39.90;;;20.10;;
18580;SDS011;9420;50.876;7.012;2024-01-11T02:25:33;45.13;;;21.17;;
18580;SDS011;9420;50.876;7.012;2024-01-11T02:28:00;46.33;;;23.00;;
18580;SDS011;9420;50.876;7.012;2024-01-11T02:30:26;48.03;;;22.00;;
18580;SDS011;9420;50.876;7.012;2024-01-11T02:32:55;51.80;;;23.30;;
18580;SDS011;9420;50.876;7.012;2024-01-11T02:35:22;41.53;;;22.83;;
18580;SDS011;9420;50.876;7.012;2024-01-11T02:37:50;41.27;;;21.93;;
18580;SDS011;9420;50.876;7.012;2024-01-11T02:40:17;49.63;;;21.47;;
18580;SDS011;9420;50.876;7.012;2024-01-11T02:42:47;47.43;;;22.00;;
18580;SDS011;9420;50.876;7.012;2024-01-11T02:45:13;51.50;;;23.33;;
18580;SDS011;9420;50.876;7.012;2024-01-11T02:47:40;41.43;;;22.50;;
18580;SDS011;9420;50.876;7.012;2024-01-11T02:50:07;42.10;;;23.37;;
18580;SDS011;9420;50.876;7.012;2024-01-11T02:52:37;38.87;;;21.07;;
18580;SDS011;9420;50.876;7.012;2024-01-11T02:55:04;40.53;;;21.57;;
18580;SDS011;9420;50.876;7.012;2024-01-11T02:57:31;42.33;;;22.00;;
18580;SDS011;9420;50.876;7.012;2024-01-11T02:59:59;47.67;;;23.77;;
18580;SDS011;9420;50.876;7.012;2024-01-11T03:02:26;43.33;;;21.10;;
18580;SDS011;9420;50.876;7.012;2024-01-11T03:04:52;40.97;;;20.73;;
18580;SDS011;9420;50.876;7.012;2024-01-11T03:07:19;40.27;;;19.63;;
18580;SDS011;9420;50.876;7.012;2024-01-11T03:09:45;47.70;;;22.80;;
18580;SDS011;9420;50.876;7.012;2024-01-11T03:12:12;45.23;;;22.57;;
18580;SDS011;9420;50.876;7.012;2024-01-11T03:14:39;48.53;;;23.07;;
18580;SDS011;9420;50.876;7.012;2024-01-11T03:17:07;42.17;;;21.43;;
18580;SDS011;9420;50.876;7.012;2024-01-11T03:19:33;42.87;;;21.90;;
18580;SDS011;9420;50.876;7.012;2024-01-11T03:22:00;46.20;;;23.07;;
18580;SDS011;9420;50.876;7.012;2024-01-11T03:24:31;43.83;;;22.63;;
18580;SDS011;9420;50.876;7.012;2024-01-11T03:26:58;46.67;;;23.77;;
18580;SDS011;9420;50.876;7.012;2024-01-11T03:29:25;44.90;;;24.07;;
18580;SDS011;9420;50.876;7.012;2024-01-11T03:31:51;46.63;;;22.70;;
18580;SDS011;9420;50.876;7.012;2024-01-11T03:34:19;47.87;;;22.93;;
18580;SDS011;9420;50.876;7.012;2024-01-11T03:36:46;50.23;;;23.73;;
18580;SDS011;9420;50.876;7.012;2024-01-11T03:39:13;41.37;;;22.03;;
18580;SDS011;9420;50.876;7.012;2024-01-11T03:41:42;41.50;;;21.70;;
18580;SDS011;9420;50.876;7.012;2024-01-11T03:44:09;41.90;;;20.93;;
18580;SDS011;9420;50.876;7.012;2024-01-11T03:46:36;46.53;;;23.13;;
18580;SDS011;9420;50.876;7.012;2024-01-11T03:49:03;40.80;;;21.70;;
18580;SDS011;9420;50.876;7.012;2024-01-11T03:51:31;42.97;;;22.90;;
18580;SDS011;9420;50.876;7.012;2024-01-11T03:53:58;43.90;;;22.37;;
18580;SDS011;9420;50.876;7.012;2024-01-11T03:56:25;44.93;;;22.77;;
18580;SDS011;9420;50.876;7.012;2024-01-11T03:58:51;43.43;;;22.87;;
18580;SDS011;9420;50.876;7.012;2024-01-11T04:01:18;49.87;;;24.77;;
18580;SDS011;9420;50.876;7.012;2024-01-11T04:03:44;53.37;;;24.10;;
18580;SDS011;9420;50.876;7.012;2024-01-11T04:06:18;45.20;;;23.50;;
18580;SDS011;9420;50.876;7.012;2024-01-11T04:08:47;47.70;;;22.93;;
18580;SDS011;9420;50.876;7.012;2024-01-11T04:11:14;43.43;;;24.27;;
18580;SDS011;9420;50.876;7.012;2024-01-11T04:13:41;47.67;;;23.23;;
18580;SDS011;9420;50.876;7.012;2024-01-11T04:16:08;46.87;;;23.70;;
18580;SDS011;9420;50.876;7.012;2024-01-11T04:18:35;46.93;;;24.77;;
18580;SDS011;9420;50.876;7.012;2024-01-11T04:21:01;44.83;;;23.60;;
18580;SDS011;9420;50.876;7.012;2024-01-11T04:23:29;49.30;;;23.77;;
18580;SDS011;9420;50.876;7.012;2024-01-11T04:25:56;46.87;;;22.70;;
18580;SDS011;9420;50.876;7.012;2024-01-11T04:28:23;46.77;;;23.57;;
18580;SDS011;9420;50.876;7.012;2024-01-11T04:30:50;46.50;;;24.63;;
18580;SDS011;9420;50.876;7.012;2024-01-11T04:33:16;49.37;;;22.03;;
18580;SDS011;9420;50.876;7.012;2024-01-11T04:35:43;46.70;;;22.23;;
18580;SDS011;9420;50.876;7.012;2024-01-11T04:38:10;41.13;;;20.93;;
18580;SDS011;9420;50.876;7.012;2024-01-11T04:40:38;49.20;;;22.17;;
18580;SDS011;9420;50.876;7.012;2024-01-11T04:43:06;45.00;;;21.23;;
18580;SDS011;9420;50.876;7.012;2024-01-11T04:45:34;49.10;;;21.93;;
18580;SDS011;9420;50.876;7.012;2024-01-11T04:48:00;50.80;;;24.20;;
18580;SDS011;9420;50.876;7.012;2024-01-11T04:50:27;42.70;;;22.17;;
18580;SDS011;9420;50.876;7.012;2024-01-11T04:52:54;43.43;;;21.50;;
18580;SDS011;9420;50.876;7.012;2024-01-11T04:55:20;40.83;;;21.80;;
18580;SDS011;9420;50.876;7.012;2024-01-11T04:57:47;44.17;;;24.10;;
18580;SDS011;9420;50.876;7.012;2024-01-11T05:00:16;49.63;;;23.63;;
18580;SDS011;9420;50.876;7.012;2024-01-11T05:02:43;46.80;;;22.93;;
18580;SDS011;9420;50.876;7.012;2024-01-11T05:05:09;52.47;;;24.40;;
18580;SDS011;9420;50.876;7.012;2024-01-11T05:07:36;42.53;;;22.83;;
18580;SDS011;9420;50.876;7.012;2024-01-11T05:10:03;40.73;;;22.03;;
18580;SDS011;9420;50.876;7.012;2024-01-11T05:12:30;44.73;;;23.10;;
18580;SDS011;9420;50.876;7.012;2024-01-11T05:14:56;41.20;;;22.60;;
18580;SDS011;9420;50.876;7.012;2024-01-11T05:17:24;38.40;;;20.07;;
18580;SDS011;9420;50.876;7.012;2024-01-11T05:19:52;44.60;;;22.60;;
18580;SDS011;9420;50.876;7.012;2024-01-11T05:22:19;43.83;;;21.03;;
18580;SDS011;9420;50.876;7.012;2024-01-11T05:24:47;40.10;;;21.47;;
18580;SDS011;9420;50.876;7.012;2024-01-11T05:27:13;46.07;;;23.50;;
18580;SDS011;9420;50.876;7.012;2024-01-11T05:29:40;43.30;;;22.80;;
18580;SDS011;9420;50.876;7.012;2024-01-11T05:32:06;45.83;;;22.53;;
18580;SDS011;9420;50.876;7.012;2024-01-11T05:34:34;43.00;;;22.10;;
18580;SDS011;9420;50.876;7.012;2024-01-11T05:37:01;41.50;;;21.73;;
18580;SDS011;9420;50.876;7.012;2024-01-11T05:39:27;47.80;;;23.87;;
18580;SDS011;9420;50.876;7.012;2024-01-11T05:41:54;48.33;;;24.07;;
18580;SDS011;9420;50.876;7.012;2024-01-11T05:44:22;53.23;;;22.73;;
18580;SDS011;9420;50.876;7.012;2024-01-11T05:46:48;45.80;;;22.70;;
18580;SDS011;9420;50.876;7.012;2024-01-11T05:49:15;41.50;;;21.60;;
18580;SDS011;9420;50.876;7.012;2024-01-11T05:51:43;50.37;;;22.47;;
18580;SDS011;9420;50.876;7.012;2024-01-11T05:54:09;50.93;;;23.53;;
18580;SDS011;9420;50.876;7.012;2024-01-11T05:56:36;48.87;;;23.30;;
18580;SDS011;9420;50.876;7.012;2024-01-11T05:59:03;54.03;;;24.17;;
18580;SDS011;9420;50.876;7.012;2024-01-11T06:01:30;44.00;;;22.60;;
18580;SDS011;9420;50.876;7.012;2024-01-11T06:03:57;45.23;;;23.40;;
18580;SDS011;9420;50.876;7.012;2024-01-11T06:06:24;41.67;;;23.27;;
18580;SDS011;9420;50.876;7.012;2024-01-11T06:08:52;43.00;;;23.60;;
18580;SDS011;9420;50.876;7.012;2024-01-11T06:11:18;46.03;;;24.30;;
18580;SDS011;9420;50.876;7.012;2024-01-11T06:13:45;45.20;;;22.90;;
18580;SDS011;9420;50.876;7.012;2024-01-11T06:16:12;46.40;;;23.97;;
18580;SDS011;9420;50.876;7.012;2024-01-11T06:18:38;45.37;;;23.40;;
18580;SDS011;9420;50.876;7.012;2024-01-11T06:21:05;58.37;;;25.43;;
18580;SDS011;9420;50.876;7.012;2024-01-11T06:23:31;49.53;;;23.77;;
18580;SDS011;9420;50.876;7.012;2024-01-11T06:25:59;50.13;;;23.63;;
18580;SDS011;9420;50.876;7.012;2024-01-11T06:28:26;47.43;;;23.20;;
18580;SDS011;9420;50.876;7.012;2024-01-11T06:30:53;48.90;;;22.57;;
18580;SDS011;9420;50.876;7.012;2024-01-11T06:33:20;52.67;;;22.50;;
18580;SDS011;9420;50.876;7.012;2024-01-11T06:35:46;49.83;;;24.50;;
18580;SDS011;9420;50.876;7.012;2024-01-11T06:38:13;51.70;;;24.37;;
18580;SDS011;9420;50.876;7.012;2024-01-11T06:40:39;47.53;;;23.63;;
18580;SDS011;9420;50.876;7.012;2024-01-11T06:43:08;47.60;;;23.63;;
18580;SDS011;9420;50.876;7.012;2024-01-11T06:45:34;41.33;;;22.57;;
18580;SDS011;9420;50.876;7.012;2024-01-11T06:48:01;47.30;;;23.50;;
18580;SDS011;9420;50.876;7.012;2024-01-11T06:50:28;46.97;;;24.30;;
18580;SDS011;9420;50.876;7.012;2024-01-11T06:52:55;45.27;;;22.00;;
18580;SDS011;9420;50.876;7.012;2024-01-11T06:55:21;46.03;;;24.13;;
18580;SDS011;9420;50.876;7.012;2024-01-11T06:57:48;47.20;;;22.10;;
18580;SDS011;9420;50.876;7.012;2024-01-11T07:00:16;48.03;;;24.97;;
18580;SDS011;9420;50.876;7.012;2024-01-11T07:02:43;43.87;;;24.70;;
18580;SDS011;9420;50.876;7.012;2024-01-11T07:05:09;48.33;;;24.07;;
18580;SDS011;9420;50.876;7.012;2024-01-11T07:07:37;47.43;;;23.57;;
18580;SDS011;9420;50.876;7.012;2024-01-11T07:10:04;48.57;;;25.73;;
18580;SDS011;9420;50.876;7.012;2024-01-11T07:12:33;53.87;;;24.60;;
18580;SDS011;9420;50.876;7.012;2024-01-11T07:15:02;49.40;;;24.27;;
18580;SDS011;9420;50.876;7.012;2024-01-11T07:17:31;46.80;;;23.87;;
18580;SDS011;9420;50.876;7.012;2024-01-11T07:19:57;45.63;;;24.77;;
18580;SDS011;9420;50.876;7.012;2024-01-11T07:22:25;52.27;;;24.50;;
18580;SDS011;9420;50.876;7.012;2024-01-11T07:24:52;48.67;;;24.07;;
18580;SDS011;9420;50.876;7.012;2024-01-11T07:27:19;45.83;;;23.60;;
18580;SDS011;9420;50.876;7.012;2024-01-11T07:29:46;50.57;;;23.70;;
18580;SDS011;9420;50.876;7.012;2024-01-11T07:32:12;47.07;;;24.93;;
18580;SDS011;9420;50.876;7.012;2024-01-11T07:34:41;48.07;;;23.27;;
18580;SDS011;9420;50.876;7.012;2024-01-11T07:37:08;47.50;;;25.13;;
18580;SDS011;9420;50.876;7.012;2024-01-11T07:39:34;51.57;;;24.77;;
18580;SDS011;9420;50.876;7.012;2024-01-11T07:42:02;46.93;;;24.20;;
18580;SDS011;9420;50.876;7.012;2024-01-11T07:44:29;51.27;;;25.17;;
18580;SDS011;9420;50.876;7.012;2024-01-11T07:46:56;53.90;;;24.53;;
18580;SDS011;9420;50.876;7.012;2024-01-11T07:49:22;52.80;;;25.70;;
18580;SDS011;9420;50.876;7.012;2024-01-11T07:51:50;43.57;;;23.30;;
18580;SDS011;9420;50.876;7.012;2024-01-11T07:54:17;43.03;;;24.07;;
18580;SDS011;9420;50.876;7.012;2024-01-11T07:56:43;50.47;;;24.63;;
18580;SDS011;9420;50.876;7.012;2024-01-11T07:59:10;55.97;;;25.27;;
18580;SDS011;9420;50.876;7.012;2024-01-11T08:01:39;49.70;;;24.97;;
18580;SDS011;9420;50.876;7.012;2024-01-11T08:04:06;55.43;;;25.77;;
18580;SDS011;9420;50.876;7.012;2024-01-11T08:06:32;51.43;;;25.17;;
18580;SDS011;9420;50.876;7.012;2024-01-11T08:09:00;52.90;;;26.20;;
18580;SDS011;9420;50.876;7.012;2024-01-11T08:11:29;49.40;;;25.27;;
18580;SDS011;9420;50.876;7.012;2024-01-11T08:13:56;49.40;;;26.27;;
18580;SDS011;9420;50.876;7.012;2024-01-11T08:16:22;49.90;;;24.83;;
18580;SDS011;9420;50.876;7.012;2024-01-11T08:18:49;57.93;;;26.97;;
18580;SDS011;9420;50.876;7.012;2024-01-11T08:21:16;52.37;;;26.43;;
18580;SDS011;9420;50.876;7.012;2024-01-11T08:23:44;50.97;;;26.17;;
18580;SDS011;9420;50.876;7.012;2024-01-11T08:26:15;54.37;;;26.73;;
18580;SDS011;9420;50.876;7.012;2024-01-11T08:28:43;57.47;;;26.60;;
18580;SDS011;9420;50.876;7.012;2024-01-11T08:31:10;54.67;;;26.07;;
18580;SDS011;9420;50.876;7.012;2024-01-11T08:33:37;57.23;;;26.93;;
18580;SDS011;9420;50.876;7.012;2024-01-11T08:36:04;59.67;;;25.93;;
18580;SDS011;9420;50.876;7.012;2024-01-11T08:38:31;44.67;;;25.43;;
18580;SDS011;9420;50.876;7.012;2024-01-11T08:40:58;54.03;;;26.73;;
18580;SDS011;9420;50.876;7.012;2024-01-11T08:43:26;54.30;;;28.00;;
18580;SDS011;9420;50.876;7.012;2024-01-11T08:45:53;60.03;;;27.97;;
18580;SDS011;9420;50.876;7.012;2024-01-11T08:48:20;56.97;;;27.67;;
18580;SDS011;9420;50.876;7.012;2024-01-11T08:50:47;53.97;;;26.80;;
18580;SDS011;9420;50.876;7.012;2024-01-11T08:53:13;55.33;;;26.57;;
18580;SDS011;9420;50.876;7.012;2024-01-11T08:55:41;65.67;;;27.60;;
18580;SDS011;9420;50.876;7.012;2024-01-11T08:58:08;54.93;;;26.23;;
18580;SDS011;9420;50.876;7.012;2024-01-11T09:00:36;50.83;;;27.90;;
18580;SDS011;9420;50.876;7.012;2024-01-11T09:03:03;51.20;;;27.57;;
18580;SDS011;9420;50.876;7.012;2024-01-11T09:05:30;56.23;;;31.03;;
18580;SDS011;9420;50.876;7.012;2024-01-11T09:07:57;54.80;;;28.30;;
18580;SDS011;9420;50.876;7.012;2024-01-11T09:10:24;56.93;;;29.27;;
18580;SDS011;9420;50.876;7.012;2024-01-11T09:12:50;54.03;;;27.57;;
18580;SDS011;9420;50.876;7.012;2024-01-11T09:15:17;56.67;;;27.67;;
18580;SDS011;9420;50.876;7.012;2024-01-11T09:17:45;56.20;;;29.10;;
18580;SDS011;9420;50.876;7.012;2024-01-11T09:20:12;56.67;;;30.03;;
18580;SDS011;9420;50.876;7.012;2024-01-11T09:22:39;54.40;;;28.20;;
18580;SDS011;9420;50.876;7.012;2024-01-11T09:25:07;57.93;;;28.73;;
18580;SDS011;9420;50.876;7.012;2024-01-11T09:27:34;58.60;;;29.13;;
18580;SDS011;9420;50.876;7.012;2024-01-11T09:30:01;51.73;;;28.30;;
18580;SDS011;9420;50.876;7.012;2024-01-11T09:32:29;61.70;;;28.93;;
18580;SDS011;9420;50.876;7.012;2024-01-11T09:34:57;55.33;;;29.10;;
18580;SDS011;9420;50.876;7.012;2024-01-11T09:37:24;58.87;;;30.50;;
18580;SDS011;9420;50.876;7.012;2024-01-11T09:39:51;63.20;;;30.50;;
18580;SDS011;9420;50.876;7.012;2024-01-11T09:42:17;65.53;;;28.50;;
18580;SDS011;9420;50.876;7.012;2024-01-11T09:44:44;53.97;;;29.30;;
18580;SDS011;9420;50.876;7.012;2024-01-11T09:47:12;65.10;;;30.87;;
18580;SDS011;9420;50.876;7.012;2024-01-11T09:49:42;57.43;;;29.47;;
18580;SDS011;9420;50.876;7.012;2024-01-11T09:52:10;61.47;;;29.97;;
18580;SDS011;9420;50.876;7.012;2024-01-11T09:54:38;56.57;;;28.10;;
18580;SDS011;9420;50.876;7.012;2024-01-11T09:57:05;59.23;;;28.33;;
18580;SDS011;9420;50.876;7.012;2024-01-11T09:59:35;61.07;;;30.83;;
18580;SDS011;9420;50.876;7.012;2024-01-11T10:02:03;60.07;;;29.63;;
18580;SDS011;9420;50.876;7.012;2024-01-11T10:04:33;53.50;;;29.50;;
18580;SDS011;9420;50.876;7.012;2024-01-11T10:06:59;56.57;;;29.33;;
18580;SDS011;9420;50.876;7.012;2024-01-11T10:09:29;59.40;;;29.83;;
18580;SDS011;9420;50.876;7.012;2024-01-11T10:11:55;66.60;;;31.03;;
18580;SDS011;9420;50.876;7.012;2024-01-11T10:14:22;71.37;;;30.83;;
18580;SDS011;9420;50.876;7.012;2024-01-11T10:16:49;58.17;;;30.07;;
18580;SDS011;9420;50.876;7.012;2024-01-11T10:19:16;54.00;;;29.80;;
18580;SDS011;9420;50.876;7.012;2024-01-11T10:21:44;54.70;;;30.83;;
18580;SDS011;9420;50.876;7.012;2024-01-11T10:24:15;55.77;;;29.07;;
18580;SDS011;9420;50.876;7.012;2024-01-11T10:26:45;66.63;;;31.73;;
18580;SDS011;9420;50.876;7.012;2024-01-11T10:29:12;59.40;;;31.87;;
18580;SDS011;9420;50.876;7.012;2024-01-11T10:31:39;54.73;;;30.70;;
18580;SDS011;9420;50.876;7.012;2024-01-11T10:34:06;58.80;;;31.20;;
18580;SDS011;9420;50.876;7.012;2024-01-11T10:36:33;60.70;;;31.50;;
18580;SDS011;9420;50.876;7.012;2024-01-11T10:39:00;55.47;;;28.97;;
18580;SDS011;9420;50.876;7.012;2024-01-11T10:41:30;62.73;;;31.97;;
18580;SDS011;9420;50.876;7.012;2024-01-11T10:44:04;61.63;;;31.33;;
18580;SDS011;9420;50.876;7.012;2024-01-11T10:46:37;62.60;;;30.80;;
18580;SDS011;9420;50.876;7.012;2024-01-11T10:49:04;56.27;;;30.47;;
18580;SDS011;9420;50.876;7.012;2024-01-11T10:51:32;58.70;;;30.13;;
18580;SDS011;9420;50.876;7.012;2024-01-11T10:53:59;60.80;;;33.20;;
18580;SDS011;9420;50.876;7.012;2024-01-11T10:56:27;57.57;;;30.10;;
18580;SDS011;9420;50.876;7.012;2024-01-11T10:58:56;63.17;;;32.17;;
18580;SDS011;9420;50.876;7.012;2024-01-11T11:01:25;55.97;;;31.27;;
18580;SDS011;9420;50.876;7.012;2024-01-11T11:03:53;59.73;;;31.30;;
18580;SDS011;9420;50.876;7.012;2024-01-11T11:06:22;69.67;;;31.70;;
18580;SDS011;9420;50.876;7.012;2024-01-11T11:08:49;63.83;;;29.83;;
18580;SDS011;9420;50.876;7.012;2024-01-11T11:11:18;68.87;;;33.73;;
18580;SDS011;9420;50.876;7.012;2024-01-11T11:13:47;55.87;;;29.57;;
18580;SDS011;9420;50.876;7.012;2024-01-11T11:16:15;57.67;;;32.00;;
18580;SDS011;9420;50.876;7.012;2024-01-11T11:18:43;65.37;;;33.30;;
18580;SDS011;9420;50.876;7.012;2024-01-11T11:21:10;67.33;;;32.90;;
18580;SDS011;9420;50.876;7.012;2024-01-11T11:23:37;61.33;;;30.67;;
18580;SDS011;9420;50.876;7.012;2024-01-11T11:26:05;67.83;;;33.17;;
18580;SDS011;9420;50.876;7.012;2024-01-11T11:28:33;63.33;;;32.10;;
18580;SDS011;9420;50.876;7.012;2024-01-11T11:31:02;64.03;;;32.03;;
18580;SDS011;9420;50.876;7.012;2024-01-11T11:33:29;63.03;;;33.40;;
18580;SDS011;9420;50.876;7.012;2024-01-11T11:36:00;60.87;;;30.93;;
18580;SDS011;9420;50.876;7.012;2024-01-11T11:38:30;70.83;;;31.60;;
18580;SDS011;9420;50.876;7.012;2024-01-11T11:40:58;61.23;;;32.53;;
18580;SDS011;9420;50.876;7.012;2024-01-11T11:43:27;55.53;;;32.17;;
18580;SDS011;9420;50.876;7.012;2024-01-11T11:45:55;63.03;;;31.03;;
18580;SDS011;9420;50.876;7.012;2024-01-11T11:51:21;65.97;;;32.83;;
18580;SDS011;9420;50.876;7.012;2024-01-11T11:53:49;59.20;;;31.43;;
18580;SDS011;9420;50.876;7.012;2024-01-11T11:56:18;61.53;;;31.17;;
18580;SDS011;9420;50.876;7.012;2024-01-11T11:58:46;55.93;;;30.00;;
18580;SDS011;9420;50.876;7.012;2024-01-11T12:01:14;57.53;;;29.20;;
18580;SDS011;9420;50.876;7.012;2024-01-11T12:03:42;54.60;;;30.47;;
18580;SDS011;9420;50.876;7.012;2024-01-11T12:06:14;58.40;;;30.10;;
18580;SDS011;9420;50.876;7.012;2024-01-11T12:08:43;55.17;;;30.23;;
18580;SDS011;9420;50.876;7.012;2024-01-11T12:11:12;51.83;;;26.80;;
18580;SDS011;9420;50.876;7.012;2024-01-11T12:13:39;57.93;;;28.93;;
18580;SDS011;9420;50.876;7.012;2024-01-11T12:16:07;51.73;;;29.77;;
18580;SDS011;9420;50.876;7.012;2024-01-11T12:18:33;48.40;;;28.47;;
18580;SDS011;9420;50.876;7.012;2024-01-11T12:21:00;50.67;;;28.80;;
18580;SDS011;9420;50.876;7.012;2024-01-11T12:23:27;44.93;;;28.73;;
18580;SDS011;9420;50.876;7.012;2024-01-11T12:25:57;50.43;;;27.67;;
18580;SDS011;9420;50.876;7.012;2024-01-11T12:28:24;49.20;;;28.03;;
18580;SDS011;9420;50.876;7.012;2024-01-11T12:30:50;56.77;;;30.97;;
18580;SDS011;9420;50.876;7.012;2024-01-11T12:33:17;44.83;;;29.30;;
18580;SDS011;9420;50.876;7.012;2024-01-11T12:35:44;51.00;;;28.00;;
18580;SDS011;9420;50.876;7.012;2024-01-11T12:38:11;51.47;;;30.53;;
18580;SDS011;9420;50.876;7.012;2024-01-11T12:40:38;51.73;;;27.87;;
18580;SDS011;9420;50.876;7.012;2024-01-11T12:43:06;45.93;;;27.83;;
18580;SDS011;9420;50.876;7.012;2024-01-11T12:45:34;51.10;;;30.17;;
18580;SDS011;9420;50.876;7.012;2024-01-11T12:48:01;60.27;;;29.67;;
18580;SDS011;9420;50.876;7.012;2024-01-11T12:50:29;61.70;;;30.43;;
18580;SDS011;9420;50.876;7.012;2024-01-11T12:53:07;48.07;;;26.67;;
18580;SDS011;9420;50.876;7.012;2024-01-11T12:55:37;49.60;;;28.90;;
18580;SDS011;9420;50.876;7.012;2024-01-11T12:58:04;55.43;;;28.50;;
18580;SDS011;9420;50.876;7.012;2024-01-11T13:00:34;46.37;;;25.40;;
18580;SDS011;9420;50.876;7.012;2024-01-11T13:03:02;43.77;;;25.87;;
18580;SDS011;9420;50.876;7.012;2024-01-11T13:05:31;49.30;;;26.23;;
18580;SDS011;9420;50.876;7.012;2024-01-11T13:08:00;37.47;;;25.93;;
18580;SDS011;9420;50.876;7.012;2024-01-11T13:10:28;51.43;;;27.23;;
18580;SDS011;9420;50.876;7.012;2024-01-11T13:12:55;42.23;;;25.57;;
18580;SDS011;9420;50.876;7.012;2024-01-11T13:15:24;39.93;;;25.17;;
18580;SDS011;9420;50.876;7.012;2024-01-11T13:17:51;41.73;;;25.83;;
18580;SDS011;9420;50.876;7.012;2024-01-11T13:20:18;42.23;;;24.90;;
18580;SDS011;9420;50.876;7.012;2024-01-11T13:22:45;43.80;;;26.33;;
18580;SDS011;9420;50.876;7.012;2024-01-11T13:25:11;38.23;;;25.40;;
18580;SDS011;9420;50.876;7.012;2024-01-11T13:27:39;39.87;;;25.43;;
18580;SDS011;9420;50.876;7.012;2024-01-11T13:30:06;42.60;;;25.87;;
18580;SDS011;9420;50.876;7.012;2024-01-11T13:32:34;50.90;;;26.53;;
18580;SDS011;9420;50.876;7.012;2024-01-11T13:35:01;48.53;;;26.20;;
18580;SDS011;9420;50.876;7.012;2024-01-11T13:37:29;36.67;;;24.90;;
18580;SDS011;9420;50.876;7.012;2024-01-11T13:39:55;43.67;;;26.10;;
18580;SDS011;9420;50.876;7.012;2024-01-11T13:42:22;40.60;;;24.80;;
18580;SDS011;9420;50.876;7.012;2024-01-11T13:44:48;40.07;;;24.23;;
18580;SDS011;9420;50.876;7.012;2024-01-11T13:47:16;42.47;;;26.00;;
18580;SDS011;9420;50.876;7.012;2024-01-11T13:49:44;39.43;;;25.10;;
18580;SDS011;9420;50.876;7.012;2024-01-11T13:52:11;41.33;;;25.93;;
18580;SDS011;9420;50.876;7.012;2024-01-11T13:54:38;47.83;;;26.83;;
18580;SDS011;9420;50.876;7.012;2024-01-11T13:57:04;44.17;;;25.17;;
18580;SDS011;9420;50.876;7.012;2024-01-11T13:59:32;43.40;;;27.03;;
18580;SDS011;9420;50.876;7.012;2024-01-11T14:01:58;41.37;;;24.47;;
18580;SDS011;9420;50.876;7.012;2024-01-11T14:04:25;41.37;;;25.57;;
18580;SDS011;9420;50.876;7.012;2024-01-11T14:06:53;43.80;;;26.70;;
18580;SDS011;9420;50.876;7.012;2024-01-11T14:09:20;44.07;;;26.80;;
18580;SDS011;9420;50.876;7.012;2024-01-11T14:11:48;42.07;;;26.33;;
18580;SDS011;9420;50.876;7.012;2024-01-11T14:14:15;50.53;;;28.90;;
18580;SDS011;9420;50.876;7.012;2024-01-11T14:16:43;47.70;;;27.37;;
18580;SDS011;9420;50.876;7.012;2024-01-11T14:19:10;44.13;;;26.27;;
18580;SDS011;9420;50.876;7.012;2024-01-11T14:21:37;47.60;;;28.13;;
18580;SDS011;9420;50.876;7.012;2024-01-11T14:24:05;44.43;;;26.30;;
18580;SDS011;9420;50.876;7.012;2024-01-11T14:26:32;48.10;;;28.87;;
18580;SDS011;9420;50.876;7.012;2024-01-11T14:28:59;42.87;;;28.53;;
18580;SDS011;9420;50.876;7.012;2024-01-11T14:31:26;46.33;;;27.93;;
18580;SDS011;9420;50.876;7.012;2024-01-11T14:33:53;48.10;;;27.33;;
18580;SDS011;9420;50.876;7.012;2024-01-11T14:36:20;44.90;;;27.37;;